Startpagina
METAR-TAF:

METAR-TAF

Vliegvelden :

Nörvenich, Duitsland

breedte: 50-50N, lengte: 006-40E, hoogte: 118 m

Actueel weer

Dit bericht is 26 minuten geleden gemaakt, om 13:20 UTC
Wind 18 kt uit het westzuidwesten
Temperatuur 10°C
Vochtigheid 76%
Druk 1022 hPa
Zicht 10 km of meer
Gebroken wolken op 1800 ft

METAR: ETNN 291320Z 25018KT 9999 BKN018 10/06 Q1022 WHT

Tijdstip: 14:46 (13:46 UTC)

Verwachting

Dit bericht is 29 uur en het 39 minuten geleden gemaakt, om 08:07 UTC
Verwachting geldig van 28 om 09 UTC tot 28 om 18 UTC
Wind 8 kt uit het westen
Zicht 10 km of meer
Verspreide wolken op 2000 ft
Verspreide wolken op 20000 ft
Tijdelijke
van 28 om 09 UTC tot 28 om 18 UTC
Wind 10 kt uit het westen met uitschieters tot 20 kt
Zicht: 8000 m
Verspreide wolken op 1000 ft
Gebroken wolken op 2000 ft
Gebroken wolken op 20000 ft

TAF: ETNN 280807Z 2809/2818 27008KT 9999 NSW SCT020 SCT200 TEMPO 2809/2818 28010G20KT 8000 NSW SCT010 BKN020 BKN200 BY ETGL

Waarnemingen en weersverwachtingen van meer dan 4000 vliegvelden (METAR en TAF).

De beschikbare stations zijn de gele en rode punten op de kaart.

Ga met uw muis naar het station om de naam te zien.

Klik dan om waarnemingen en weersverwachtingen te zien.

kaart wijzigen: klik op de groene knoppen met een zwart kruis om in te zoomen, op de groene knop met een streepje om uit te zoomen of op de groene pijlen voor aangrenzende kaarten.


METAR-TAF: